Terminal Aerodrome Forecast
Issued by NWS Lake Charles, LA

Home | Current Version | Previous Version | Text Only | Print | Product List | Glossary On
Versions: 1 2 3 4 5 6 7 8 9 10 11 12 13 14 15 16 17
000
FTUS44 KLCH 230342 AAA
TAFARA
TAF AMD
KARA 230342Z 2304/2324 VRB05KT P6SM VCSH FEW035 SCT070 BKN120
      TEMPO 2304/2306 5SM TSRA BKN025 OVC035CB
     FM230600 VRB03KT P6SM FEW025 BKN250
     FM231400 25005KT P6SM VCTS SCT025CB BKN250 PROB30 2316/2320 2SM
      TSRA BKN025CB=

USA.gov is the U.S. government's official web portal to all federal, state and local government web resources and services.